Loventuel, Argentina
Current Conditions -  °F | °C
As of 5:00 AM on Friday 31 Oct 2014 (Local Time) from SAOC Reporting Station
Thunderstorm Thunderstorm  
Wind Chill: 14°   Ceiling: 5000
Heat Index: 14°   Visibility: 4mi
Dew Point: 13°   Wind: 17mph
Humidity: 94%   Direction: 200°SSW
Pressure: 29.88"   Gusts: 32mph
Location:  36.2°S, 65.19°W
Report Text: SAOC 310800Z 20015G28KT 6000 TSRA FEW012FEW040CB OVC050 14/13 Q1012
Loading
Personal Weather Stations






























Interactive Weather Map
Tropical Storm Tracking
New forecast layout! Learn more

10-Day Weather Forecast

Advertisements
Track Severe Weather on mobile